Time;durP1;ratioP1;P1;durP2;ratioP2;P2;SDS_P1;SDS_P2;PMS_P1;PMS_P2;Temp;Humidity;BMP_temperature;BMP_pressure;BME280_temperature;BME280_humidity;BME280_pressure;Samples;Min_cycle;Max_cycle;Signal;HPM_P1;HPM_P2
2022/09/19 00:00:40;;;;;;;12.88;2.38;;;10.80;99.90;;;;;;4940104;28;90195;-32
2022/09/19 00:03:06;;;;;;;9.85;2.83;;;10.80;99.90;;;;;;4939608;28;91264;-31
2022/09/19 00:05:32;;;;;;;7.22;1.88;;;10.80;99.90;;;;;;4939178;28;89839;-33
2022/09/19 00:07:58;;;;;;;11.77;2.40;;;10.80;99.90;;;;;;4940192;28;88046;-31
2022/09/19 00:10:25;;;;;;;13.63;3.53;;;10.80;99.90;;;;;;4938477;28;90064;-31
2022/09/19 00:12:51;;;;;;;11.80;2.40;;;10.90;99.90;;;;;;4939023;28;89316;-34
2022/09/19 00:15:17;;;;;;;11.93;1.92;;;10.90;99.90;;;;;;4939986;28;89930;-29
2022/09/19 00:17:42;;;;;;;18.33;2.35;;;10.90;99.90;;;;;;4939485;28;90206;-29
2022/09/19 00:20:08;;;;;;;9.93;2.78;;;10.90;99.90;;;;;;4939521;28;90791;-32
2022/09/19 00:22:34;;;;;;;10.98;2.63;;;10.90;99.90;;;;;;4937943;28;90298;-29
2022/09/19 00:24:59;;;;;;;4.05;1.83;;;11.00;99.90;;;;;;4939248;28;90545;-32
2022/09/19 00:27:26;;;;;;;15.45;2.97;;;11.00;99.90;;;;;;4939460;28;89533;-29
2022/09/19 00:29:53;;;;;;;4.88;2.70;;;11.00;99.90;;;;;;4921312;28;90095;-30
2022/09/19 00:32:21;;;;;;;7.22;1.83;;;11.00;99.90;;;;;;4938479;28;90259;-32
2022/09/19 00:34:48;;;;;;;14.47;2.27;;;11.00;99.90;;;;;;4939117;28;89694;-31
2022/09/19 00:37:15;;;;;;;17.97;3.00;;;11.00;99.90;;;;;;4939372;28;89343;-30
2022/09/19 00:39:41;;;;;;;5.40;1.95;;;11.00;99.90;;;;;;4938652;28;90253;-28
2022/09/19 00:42:19;;;;;;;12.88;2.33;;;11.00;99.90;;;;;;4998814;22;90012;-31
2022/09/19 00:45:00;;;;;;;12.25;1.83;;;11.00;99.90;;;;;;5017498;28;89836;-30
2022/09/19 00:47:39;;;;;;;4.38;1.83;;;11.00;99.90;;;;;;5017946;27;89003;-32
2022/09/19 00:50:23;;;;;;;5.13;1.85;;;11.00;99.90;;;;;;4992384;28;90143;-34
2022/09/19 00:52:54;;;;;;;12.60;1.95;;;11.00;99.90;;;;;;5017455;27;89276;-30
2022/09/19 00:55:19;;;;;;;5.78;2.03;;;11.00;99.90;;;;;;5006800;28;89733;-30
2022/09/19 00:58:09;;;;;;;8.30;2.05;;;11.00;99.90;;;;;;5021498;28;87658;-28
2022/09/19 01:00:35;;;;;;;4.97;1.85;;;11.00;99.90;;;;;;5020131;28;90273;-29
2022/09/19 01:03:05;;;;;;;7.13;1.67;;;11.00;99.90;;;;;;5021569;27;89633;-33
2022/09/19 01:05:55;;;;;;;17.45;2.95;;;11.00;99.90;;;;;;5022008;27;89491;-33
2022/09/19 01:08:45;;;;;;;5.40;1.30;;;11.10;99.90;;;;;;5021110;28;88549;-30
2022/09/19 01:11:42;;;;;;;5.97;1.55;;;11.00;99.90;;;;;;4990139;28;90755;-30
2022/09/19 01:14:39;;;;;;;9.75;2.05;;;11.10;99.90;;;;;;5019283;28;91179;-34
2022/09/19 01:17:16;;;;;;;8.77;1.80;;;11.00;99.90;;;;;;5021325;27;89053;-30
2022/09/19 01:19:59;;;;;;;10.35;1.33;;;11.00;99.90;;;;;;5021537;27;88673;-32
2022/09/19 01:23:15;;;;;;;11.05;2.00;;;11.00;99.90;;;;;;5020919;28;92128;-29
2022/09/19 01:26:11;;;;;;;4.88;1.83;;;11.00;99.90;;;;;;5015518;28;90417;-29
2022/09/19 01:28:43;;;;;;;7.97;2.13;;;11.00;99.90;;;;;;5020874;27;89502;-30
2022/09/19 01:31:27;;;;;;;13.43;2.55;;;11.00;99.90;;;;;;5020709;28;88329;-32
2022/09/19 01:34:08;;;;;;;6.18;2.75;;;11.10;99.90;;;;;;5021282;27;90667;-33
2022/09/19 01:36:43;;;;;;;9.65;2.17;;;11.00;99.90;;;;;;5020928;27;89589;-28
2022/09/19 01:39:10;;;;;;;11.35;2.35;;;11.10;99.90;;;;;;5021483;28;89772;-31
2022/09/19 01:41:36;;;;;;;4.22;2.00;;;11.10;99.90;;;;;;5020579;27;89616;-33
2022/09/19 01:44:06;;;;;;;6.22;3.00;;;11.10;99.90;;;;;;5021072;28;90493;-33
2022/09/19 01:46:56;;;;;;;13.23;2.58;;;11.10;99.90;;;;;;5020265;28;89341;-29
2022/09/19 01:49:47;;;;;;;8.60;2.30;;;11.10;99.90;;;;;;5020328;27;89757;-30
2022/09/19 01:52:18;;;;;;;4.90;1.40;;;11.00;99.90;;;;;;5021102;28;88306;-29
2022/09/19 01:55:06;;;;;;;13.25;3.28;;;11.00;99.90;;;;;;5020964;28;90437;-31
2022/09/19 01:57:43;;;;;;;9.75;2.20;;;11.00;99.90;;;;;;5021042;28;90014;-33
2022/09/19 02:00:14;;;;;;;9.90;1.33;;;11.00;99.90;;;;;;5021015;28;90572;-28
2022/09/19 02:02:43;;;;;;;24.52;3.00;;;11.00;99.90;;;;;;5020703;27;88083;-34
2022/09/19 02:05:26;;;;;;;;;;;10.90;99.90;;;;;;5021217;28;91474;-30
2022/09/19 02:08:01;;;;;;;18.92;2.53;;;11.00;99.90;;;;;;5021385;27;91013;-31
2022/09/19 02:10:56;;;;;;;9.52;2.38;;;10.90;99.90;;;;;;5006213;27;90862;-32
2022/09/19 02:13:25;;;;;;;13.23;2.35;;;11.00;99.90;;;;;;5019807;28;90196;-28
2022/09/19 02:15:59;;;;;;;17.02;2.75;;;11.00;99.90;;;;;;5020560;27;90161;-32
2022/09/19 02:18:33;;;;;;;9.40;2.90;;;11.00;99.90;;;;;;5020714;27;88574;-29
2022/09/19 02:21:05;;;;;;;10.15;2.28;;;11.00;99.90;;;;;;5020547;28;88538;-31
2022/09/19 02:23:37;;;;;;;8.77;2.92;;;11.00;99.90;;;;;;5020097;27;89273;-32
2022/09/19 02:26:06;;;;;;;13.15;2.45;;;11.00;99.90;;;;;;5020412;27;90734;-31
2022/09/19 02:28:38;;;;;;;6.50;2.70;;;11.00;99.90;;;;;;5020487;27;89706;-30
2022/09/19 02:31:05;;;;;;;11.25;1.90;;;10.90;99.90;;;;;;4997248;28;90328;-33
2022/09/19 02:33:35;;;;;;;9.23;2.85;;;10.90;99.90;;;;;;5003468;28;90538;-29
2022/09/19 02:36:41;;;;;;;9.18;2.38;;;10.90;99.90;;;;;;5005975;28;90193;-30
2022/09/19 02:39:22;;;;;;;11.32;2.65;;;10.90;99.90;;;;;;5007996;27;89783;-31
2022/09/19 02:42:07;;;;;;;17.92;3.42;;;10.90;99.90;;;;;;5019732;28;89849;-32
2022/09/19 02:45:06;;;;;;;9.80;2.17;;;10.90;99.90;;;;;;5019480;27;87484;-30
2022/09/19 02:47:51;;;;;;;16.27;3.17;;;11.00;99.90;;;;;;5009165;27;89913;-32
2022/09/19 02:50:22;;;;;;;16.20;3.30;;;11.00;99.90;;;;;;5018534;28;89346;-30
2022/09/19 02:52:50;;;;;;;9.40;3.20;;;11.00;99.90;;;;;;5020128;28;89492;-32
2022/09/19 02:55:30;;;;;;;9.20;2.80;;;11.10;99.90;;;;;;5019947;28;88607;-32
2022/09/19 02:58:00;;;;;;;9.30;2.97;;;11.00;99.90;;;;;;5019244;27;90564;-32
2022/09/19 03:00:26;;;;;;;20.55;3.10;;;11.00;99.90;;;;;;5013941;27;91131;-30
2022/09/19 03:04:11;;;;;;;7.57;3.22;;;11.00;99.90;;;;;;5011082;28;90755;-34
2022/09/19 03:05:51;;;;;;;;;;;11.00;99.90;;;;;;5020533;28;88678;-32
2022/09/19 03:08:18;;;;;;;9.82;2.33;;;11.00;99.90;;;;;;5021200;27;90185;-31
2022/09/19 03:10:48;;;;;;;15.95;2.92;;;11.00;99.90;;;;;;5019453;28;90944;-30
2022/09/19 03:13:13;;;;;;;20.52;3.55;;;11.00;99.90;;;;;;5018706;27;90779;-30
2022/09/19 03:15:49;;;;;;;8.20;3.03;;;11.00;99.90;;;;;;5020004;27;89883;-31
2022/09/19 03:18:17;;;;;;;18.42;3.33;;;11.00;99.90;;;;;;5018640;27;90786;-32
2022/09/19 03:20:59;;;;;;;23.20;3.58;;;11.00;99.90;;;;;;5019496;27;89447;-31
2022/09/19 03:23:38;;;;;;;19.40;2.85;;;11.00;99.90;;;;;;5019034;27;89686;-31
2022/09/19 03:26:08;;;;;;;15.10;2.92;;;11.00;99.90;;;;;;5019845;27;90644;-30
2022/09/19 03:28:33;;;;;;;20.02;3.30;;;11.10;99.90;;;;;;5019780;28;90186;-30
2022/09/19 03:31:00;;;;;;;14.23;2.47;;;11.10;99.90;;;;;;5019331;28;90625;-32
2022/09/19 03:33:27;;;;;;;13.15;2.83;;;11.10;99.90;;;;;;5018687;27;89412;-29
2022/09/19 03:35:56;;;;;;;8.27;2.25;;;11.20;99.90;;;;;;5020011;27;89378;-31
2022/09/19 03:38:22;;;;;;;9.38;2.67;;;11.20;99.90;;;;;;5011630;27;90539;-30
2022/09/19 03:40:48;;;;;;;3.58;2.22;;;11.20;99.90;;;;;;5012776;28;89897;-31
2022/09/19 03:43:14;;;;;;;11.70;2.92;;;11.30;99.90;;;;;;5018928;27;89993;-31
2022/09/19 03:45:40;;;;;;;7.75;2.55;;;11.20;99.90;;;;;;5019899;28;88697;-32
2022/09/19 03:48:05;;;;;;;14.70;3.30;;;11.20;99.90;;;;;;5018278;28;90368;-30
2022/09/19 03:50:31;;;;;;;8.52;3.22;;;11.20;99.90;;;;;;5018711;28;90675;-28
2022/09/19 03:52:58;;;;;;;8.00;2.10;;;11.20;99.90;;;;;;5018713;28;90366;-32
2022/09/19 03:55:23;;;;;;;11.20;2.83;;;11.20;99.90;;;;;;5017960;28;88600;-32
2022/09/19 03:57:49;;;;;;;13.73;2.35;;;11.20;99.90;;;;;;5019299;28;91212;-30
2022/09/19 04:00:15;;;;;;;11.98;3.05;;;11.20;99.90;;;;;;5018786;28;89519;-30
2022/09/19 04:02:41;;;;;;;11.63;2.45;;;11.10;99.90;;;;;;5019206;28;90138;-30
2022/09/19 04:05:07;;;;;;;15.43;3.00;;;11.10;99.90;;;;;;5019006;28;88861;-29
2022/09/19 04:07:33;;;;;;;7.65;2.90;;;11.10;99.90;;;;;;5019257;27;90386;-30
2022/09/19 04:09:58;;;;;;;9.68;3.00;;;11.10;99.90;;;;;;5019149;28;90213;-30
2022/09/19 04:12:24;;;;;;;9.63;2.83;;;11.00;99.90;;;;;;5018054;28;89494;-31
2022/09/19 04:14:50;;;;;;;8.60;2.30;;;11.00;99.90;;;;;;5018736;27;89359;-30
2022/09/19 04:17:16;;;;;;;15.93;3.42;;;11.00;99.90;;;;;;5018533;27;90397;-33
2022/09/19 04:19:42;;;;;;;11.88;3.30;;;11.00;99.90;;;;;;5018921;27;89704;-30
2022/09/19 04:22:11;;;;;;;13.38;2.75;;;11.00;99.90;;;;;;5018781;28;89563;-31
2022/09/19 04:24:40;;;;;;;7.25;2.33;;;11.00;99.90;;;;;;5018326;28;89611;-30
2022/09/19 04:27:06;;;;;;;6.57;2.58;;;11.00;99.90;;;;;;5018360;28;90433;-29
2022/09/19 04:29:33;;;;;;;17.10;3.00;;;11.10;99.90;;;;;;5018805;27;89541;-32
2022/09/19 04:32:02;;;;;;;11.95;3.10;;;11.10;99.90;;;;;;5022409;27;89759;-29
2022/09/19 04:34:29;;;;;;;7.53;2.65;;;11.10;99.90;;;;;;5022065;27;88242;-32
2022/09/19 04:36:56;;;;;;;6.00;2.75;;;11.10;99.90;;;;;;5021650;27;88784;-33
2022/09/19 04:39:22;;;;;;;9.35;2.47;;;11.20;99.90;;;;;;5006875;27;90426;-30
2022/09/19 04:41:53;;;;;;;22.25;4.43;;;11.20;99.90;;;;;;5021729;27;90965;-33
2022/09/19 04:44:27;;;;;;;8.90;2.67;;;11.10;99.90;;;;;;5021823;27;89872;-30
2022/09/19 04:46:53;;;;;;;10.07;3.58;;;11.10;99.90;;;;;;5021463;27;91395;-30
2022/09/19 04:49:18;;;;;;;14.18;2.45;;;11.10;99.90;;;;;;5021409;28;89034;-31
2022/09/19 04:51:45;;;;;;;7.00;3.13;;;11.10;99.90;;;;;;5022000;28;89254;-30
2022/09/19 04:54:11;;;;;;;6.97;2.17;;;11.10;99.90;;;;;;5021656;27;89060;-29
2022/09/19 04:56:38;;;;;;;7.80;2.85;;;11.10;99.90;;;;;;5022087;27;89889;-29
2022/09/19 04:59:03;;;;;;;12.02;3.08;;;11.10;99.90;;;;;;5021774;28;89388;-30
2022/09/19 05:01:30;;;;;;;12.57;3.10;;;11.10;99.90;;;;;;5021050;27;89642;-30
2022/09/19 05:03:56;;;;;;;16.98;3.25;;;11.20;99.90;;;;;;5021485;27;89635;-31
2022/09/19 05:06:22;;;;;;;15.23;3.80;;;11.20;99.90;;;;;;5021503;27;90440;-30
2022/09/19 05:08:50;;;;;;;5.22;2.30;;;11.20;99.90;;;;;;5020792;27;89252;-32
2022/09/19 05:11:21;;;;;;;9.30;2.75;;;11.20;99.90;;;;;;5008667;27;89939;-33
2022/09/19 05:13:49;;;;;;;9.95;2.53;;;11.30;99.90;;;;;;5020889;28;88734;-30
2022/09/19 05:16:16;;;;;;;9.70;2.47;;;11.30;99.90;;;;;;5020930;27;90205;-32
2022/09/19 05:18:42;;;;;;;8.33;1.90;;;11.40;99.90;;;;;;5018218;27;90122;-30
2022/09/19 05:21:11;;;;;;;4.90;1.88;;;11.30;99.90;;;;;;5001125;28;89655;-31
2022/09/19 05:23:38;;;;;;;9.77;2.75;;;11.40;99.90;;;;;;5006610;28;89592;-32
2022/09/19 05:26:15;;;;;;;11.52;2.95;;;11.30;99.90;;;;;;5001417;28;88933;-29
2022/09/19 05:28:41;;;;;;;11.10;1.90;;;11.30;99.90;;;;;;5000592;28;90815;-29
2022/09/19 05:31:07;;;;;;;12.13;3.15;;;11.30;99.90;;;;;;5001261;28;90379;-30
2022/09/19 05:33:33;;;;;;;5.85;2.75;;;11.30;99.90;;;;;;5000938;28;88563;-30
2022/09/19 05:36:01;;;;;;;11.57;3.08;;;11.30;99.90;;;;;;5001125;28;89907;-31
2022/09/19 05:38:28;;;;;;;9.07;3.13;;;11.30;99.90;;;;;;5000217;28;89591;-31
2022/09/19 05:40:56;;;;;;;10.18;3.85;;;11.30;99.90;;;;;;5015091;27;89452;-31
2022/09/19 05:43:22;;;;;;;13.73;3.67;;;11.40;99.90;;;;;;5021010;28;88868;-29
2022/09/19 05:45:50;;;;;;;9.95;3.15;;;11.40;99.90;;;;;;5021078;27;91343;-31
2022/09/19 05:48:16;;;;;;;10.15;2.85;;;11.40;99.90;;;;;;5019984;27;89498;-28
2022/09/19 05:50:46;;;;;;;9.30;3.78;;;11.40;99.90;;;;;;5021465;27;90074;-30
2022/09/19 05:55:58;;;;;;;12.68;4.13;;;11.40;99.90;;;;;;5021259;28;90215;-29
2022/09/19 05:58:24;;;;;;;11.52;2.67;;;11.40;99.90;;;;;;5015523;27;89775;-31
2022/09/19 06:00:50;;;;;;;9.32;3.38;;;11.40;99.90;;;;;;5011393;28;89294;-28
2022/09/19 06:03:16;;;;;;;10.57;2.83;;;11.40;99.90;;;;;;5020759;27;90396;-30
2022/09/19 06:05:45;;;;;;;10.85;2.63;;;11.30;99.90;;;;;;5020344;27;90283;-29
2022/09/19 06:08:11;;;;;;;;;;;11.40;99.90;;;;;;5021302;27;89772;-30
2022/09/19 06:10:40;;;;;;;19.52;4.32;;;11.30;99.90;;;;;;5022913;27;89414;-30
2022/09/19 06:13:08;;;;;;;10.88;2.92;;;11.30;99.90;;;;;;5021386;28;89808;-30
2022/09/19 06:15:34;;;;;;;;;;;11.30;99.90;;;;;;5020842;27;90520;-29
2022/09/19 06:17:59;;;;;;;18.08;2.67;;;11.30;99.90;;;;;;5021386;28;90531;-29
2022/09/19 06:20:25;;;;;;;12.38;2.63;;;11.30;99.90;;;;;;5020354;28;90541;-29
2022/09/19 06:23:03;;;;;;;13.38;2.92;;;11.30;99.90;;;;;;5020664;28;89383;-30
2022/09/19 06:25:33;;;;;;;12.85;3.38;;;11.30;99.90;;;;;;5019869;27;90108;-31
2022/09/19 06:28:00;;;;;;;7.53;2.55;;;11.30;99.90;;;;;;5019903;28;89692;-33
2022/09/19 06:30:27;;;;;;;35.20;3.70;;;11.40;99.90;;;;;;5020523;28;89939;-30
2022/09/19 06:32:53;;;;;;;10.43;2.90;;;11.30;99.90;;;;;;5020853;27;88246;-29
2022/09/19 06:35:21;;;;;;;14.48;3.65;;;11.40;99.90;;;;;;5019594;27;89114;-30
2022/09/19 06:37:47;;;;;;;14.77;3.63;;;11.40;99.90;;;;;;5017641;27;89655;-31
2022/09/19 06:40:14;;;;;;;15.25;4.05;;;11.40;99.90;;;;;;5003619;28;89422;-31
2022/09/19 06:42:40;;;;;;;14.90;4.75;;;11.60;99.90;;;;;;4998823;28;90240;-32
2022/09/19 06:45:07;;;;;;;12.32;3.13;;;11.70;99.90;;;;;;4997472;28;90571;-32
2022/09/19 06:47:33;;;;;;;10.82;3.20;;;11.80;99.90;;;;;;4998078;28;90247;-31
2022/09/19 06:50:02;;;;;;;9.93;2.72;;;11.90;99.90;;;;;;4997554;28;89458;-32
2022/09/19 06:52:28;;;;;;;9.60;2.78;;;12.00;99.90;;;;;;4996451;28;89316;-29
2022/09/19 06:54:54;;;;;;;11.90;3.28;;;12.00;99.90;;;;;;4997735;28;90075;-31
2022/09/19 06:57:20;;;;;;;14.85;3.47;;;12.00;99.90;;;;;;4997639;28;92165;-32
2022/09/19 06:59:46;;;;;;;13.52;3.05;;;12.00;99.90;;;;;;4997541;28;89382;-34
2022/09/19 07:02:12;;;;;;;6.72;2.78;;;12.00;99.90;;;;;;4998502;28;89962;-34
2022/09/19 07:04:38;;;;;;;8.13;3.17;;;12.00;99.90;;;;;;4997251;28;90079;-30
2022/09/19 07:07:05;;;;;;;9.98;2.97;;;12.10;99.90;;;;;;4997663;28;90966;-32
2022/09/19 07:09:31;;;;;;;8.57;4.45;;;12.10;99.90;;;;;;4997943;28;90633;-30
2022/09/19 07:11:57;;;;;;;10.80;4.65;;;12.10;99.90;;;;;;4998249;28;89478;-30
2022/09/19 07:14:25;;;;;;;13.70;2.80;;;12.20;99.90;;;;;;4997406;28;90155;-33
2022/09/19 07:16:51;;;;;;;;;;;12.20;99.90;;;;;;4998993;28;89854;-32
2022/09/19 07:19:17;;;;;;;19.10;3.58;;;12.30;99.90;;;;;;4998998;28;89883;-31
2022/09/19 07:21:43;;;;;;;7.10;2.30;;;12.40;99.90;;;;;;4998965;28;89082;-32
2022/09/19 07:24:09;;;;;;;8.98;3.08;;;12.60;99.90;;;;;;4997197;28;91619;-31
2022/09/19 07:26:35;;;;;;;9.27;2.95;;;12.60;99.90;;;;;;4997014;28;89516;-30
2022/09/19 07:29:00;;;;;;;10.20;2.80;;;12.60;99.90;;;;;;4997697;28;90087;-31
2022/09/19 07:31:27;;;;;;;4.32;1.60;;;12.70;99.90;;;;;;4996664;28;89981;-31
2022/09/19 07:33:53;;;;;;;7.90;2.88;;;12.80;99.90;;;;;;4996611;28;90881;-32
2022/09/19 07:36:21;;;;;;;7.90;3.08;;;12.90;99.90;;;;;;4997342;28;89806;-30
2022/09/19 07:38:51;;;;;;;9.95;5.82;;;13.00;99.90;;;;;;4996870;28;89533;-33
2022/09/19 07:41:17;;;;;;;8.52;3.00;;;13.10;99.90;;;;;;5014140;28;89334;-30
2022/09/19 07:43:48;;;;;;;12.43;3.33;;;13.10;99.90;;;;;;5015240;27;90475;-31
2022/09/19 07:46:17;;;;;;;8.07;2.10;;;13.20;99.90;;;;;;4999121;27;90111;-33
2022/09/19 07:48:46;;;;;;;7.55;2.30;;;13.20;99.90;;;;;;4996896;28;88102;-29
2022/09/19 07:51:12;;;;;;;8.20;2.20;;;13.20;99.90;;;;;;4996515;28;88885;-32
2022/09/19 07:53:37;;;;;;;9.13;3.28;;;13.20;99.90;;;;;;4996982;28;90266;-31
2022/09/19 07:56:04;;;;;;;13.10;2.58;;;13.10;99.90;;;;;;4995782;28;90986;-29
2022/09/19 07:58:30;;;;;;;12.98;2.95;;;13.10;99.90;;;;;;4996553;28;89345;-34
2022/09/19 08:00:58;;;;;;;9.82;2.65;;;13.10;99.90;;;;;;4996810;28;89597;-33
2022/09/19 08:03:24;;;;;;;5.78;2.38;;;13.10;99.90;;;;;;4996769;28;91590;-31
2022/09/19 08:05:51;;;;;;;8.50;3.85;;;13.20;99.90;;;;;;4999420;28;89655;-31
2022/09/19 08:08:19;;;;;;;5.35;1.75;;;13.20;99.90;;;;;;5000267;28;89635;-32
2022/09/19 08:10:46;;;;;;;6.75;2.38;;;13.30;99.90;;;;;;4988800;28;88580;-31
2022/09/19 08:13:13;;;;;;;8.95;2.25;;;13.30;99.90;;;;;;5000128;28;90729;-36
2022/09/19 08:15:39;;;;;;;11.00;2.08;;;13.30;99.90;;;;;;5000157;28;89834;-32
2022/09/19 08:18:17;;;;;;;5.35;2.97;;;13.40;99.90;;;;;;5000388;28;90409;-31
2022/09/19 08:20:44;;;;;;;11.30;2.97;;;13.40;99.90;;;;;;4999493;28;90067;-31
2022/09/19 08:23:13;;;;;;;9.10;2.60;;;13.40;99.90;;;;;;4999991;28;89444;-31
2022/09/19 08:25:43;;;;;;;7.85;2.42;;;13.50;99.90;;;;;;4999845;28;89326;-32
2022/09/19 08:28:09;;;;;;;10.40;2.95;;;13.60;99.90;;;;;;4999689;28;91340;-33
2022/09/19 08:30:35;;;;;;;13.20;2.83;;;13.80;99.90;;;;;;5000287;28;89235;-34
2022/09/19 08:33:02;;;;;;;12.15;2.75;;;13.90;99.90;;;;;;4999957;28;90271;-32
2022/09/19 08:35:29;;;;;;;11.70;3.67;;;14.00;99.90;;;;;;4999091;28;90010;-30
2022/09/19 08:37:58;;;;;;;6.47;2.87;;;14.00;99.90;;;;;;5000387;28;89560;-30
2022/09/19 08:40:27;;;;;;;7.78;2.53;;;14.10;99.90;;;;;;5010529;28;89797;-31
2022/09/19 08:43:08;;;;;;;8.13;2.28;;;14.20;99.90;;;;;;5019250;28;89113;-31
2022/09/19 08:45:53;;;;;;;5.53;2.15;;;14.40;99.90;;;;;;5019174;28;91108;-32
2022/09/19 08:48:24;;;;;;;7.88;2.75;;;14.60;99.90;;;;;;5019926;27;90372;-30
2022/09/19 08:51:17;;;;;;;7.05;2.63;;;14.70;99.90;;;;;;5020108;27;89836;-31
2022/09/19 08:53:48;;;;;;;11.38;3.03;;;14.80;99.90;;;;;;5019150;27;91312;-29
2022/09/19 08:56:16;;;;;;;8.95;2.55;;;14.80;99.90;;;;;;5018556;28;89760;-32
2022/09/19 08:58:49;;;;;;;4.63;2.88;;;15.00;99.90;;;;;;5019589;27;89750;-31
2022/09/19 09:01:16;;;;;;;12.48;2.58;;;15.10;99.90;;;;;;5020101;27;89731;-33
2022/09/19 09:04:07;;;;;;;5.05;2.40;;;15.20;99.90;;;;;;5018001;28;90140;-31
2022/09/19 09:06:51;;;;;;;9.73;2.72;;;15.20;99.90;;;;;;5018711;27;91085;-33
2022/09/19 09:09:26;;;;;;;11.05;3.78;;;15.30;99.90;;;;;;5018401;27;88714;-32
2022/09/19 09:12:22;;;;;;;6.05;2.30;;;15.30;99.90;;;;;;5019583;27;90041;-32
2022/09/19 09:15:03;;;;;;;12.98;3.05;;;15.30;99.90;;;;;;5019261;27;90054;-33
2022/09/19 09:17:49;;;;;;;7.93;3.70;;;15.40;99.90;;;;;;4993015;28;90278;-31
2022/09/19 09:21:14;;;;;;;11.82;2.90;;;15.50;99.90;;;;;;5018536;28;89423;-31
2022/09/19 09:23:44;;;;;;;17.10;3.13;;;15.60;99.90;;;;;;4995202;28;89370;-32
2022/09/19 09:26:19;;;;;;;9.68;2.90;;;15.60;99.90;;;;;;5019470;27;91987;-31
2022/09/19 09:28:49;;;;;;;4.93;2.53;;;15.70;99.90;;;;;;5019257;27;89589;-32
2022/09/19 09:31:27;;;;;;;18.83;4.22;;;15.70;99.90;;;;;;5004469;27;89763;-30
2022/09/19 09:34:07;;;;;;;12.07;2.60;;;15.80;99.90;;;;;;4999288;28;89671;-34
2022/09/19 09:36:48;;;;;;;11.07;3.60;;;16.00;99.90;;;;;;4998274;28;90283;-34
2022/09/19 09:39:19;;;;;;;10.82;2.00;;;16.00;99.90;;;;;;4998704;28;91204;-32
2022/09/19 09:41:58;;;;;;;10.05;3.08;;;16.20;99.90;;;;;;5018840;27;89503;-32
2022/09/19 09:44:32;;;;;;;17.60;3.58;;;16.20;99.90;;;;;;5018311;27;89482;-32
2022/09/19 09:47:13;;;;;;;8.32;2.22;;;16.30;99.90;;;;;;5019065;27;88908;-31
2022/09/19 09:49:38;;;;;;;9.68;3.10;;;16.40;99.90;;;;;;5017026;28;89758;-32
2022/09/19 09:52:27;;;;;;;6.32;2.45;;;16.40;99.90;;;;;;5018482;28;89541;-32
2022/09/19 09:58:00;;;;;;;16.05;3.65;;;16.50;99.90;;;;;;5019026;28;90321;-32
2022/09/19 10:03:34;;;;;;;10.32;2.17;;;16.80;99.90;;;;;;5018450;28;89540;-34
2022/09/19 10:06:12;;;;;;;13.23;3.47;;;16.80;99.90;;;;;;5017117;28;90893;-33
2022/09/19 10:09:16;;;;;;;7.35;3.80;;;16.90;99.90;;;;;;5019195;27;90380;-32
2022/09/19 10:11:48;;;;;;;9.18;2.78;;;17.00;99.90;;;;;;5017233;28;90103;-31
2022/09/19 10:14:23;;;;;;;6.72;2.20;;;17.00;99.90;;;;;;5017782;28;90004;-36
2022/09/19 10:16:52;;;;;;;7.55;2.25;;;16.90;99.90;;;;;;5018501;27;88845;-31
2022/09/19 10:19:40;;;;;;;10.70;2.15;;;16.50;99.90;;;;;;5018849;27;90308;-31
2022/09/19 10:22:16;;;;;;;4.45;2.72;;;16.30;99.90;;;;;;5017815;28;87893;-33
2022/09/19 10:24:47;;;;;;;5.25;2.50;;;15.90;99.90;;;;;;5018601;27;89734;-32
2022/09/19 10:27:23;;;;;;;8.93;2.20;;;15.70;99.90;;;;;;5005226;28;89441;-30
2022/09/19 10:30:01;;;;;;;7.95;3.05;;;15.40;99.90;;;;;;4985088;28;90031;-31
2022/09/19 10:32:37;;;;;;;8.20;3.00;;;15.20;99.90;;;;;;4997532;28;91109;-32
2022/09/19 10:35:32;;;;;;;15.43;3.50;;;15.10;99.90;;;;;;4996095;28;89842;-31
2022/09/19 10:38:11;;;;;;;10.32;3.45;;;15.10;99.90;;;;;;4997597;28;89944;-32
2022/09/19 10:40:37;;;;;;;10.63;2.65;;;15.30;99.90;;;;;;5009380;28;90286;-32
2022/09/19 10:43:04;;;;;;;12.35;3.17;;;15.40;99.90;;;;;;5017953;28;89966;-34
2022/09/19 10:45:36;;;;;;;3.63;2.50;;;15.30;99.90;;;;;;5017744;27;89840;-32
2022/09/19 10:48:20;;;;;;;4.63;2.28;;;15.10;99.90;;;;;;5017961;27;89845;-32
2022/09/19 10:50:48;;;;;;;6.38;1.80;;;14.80;99.90;;;;;;5018123;28;89519;-30
2022/09/19 10:53:25;;;;;;;2.77;1.60;;;14.70;99.90;;;;;;5017337;27;90243;-32
2022/09/19 10:55:52;;;;;;;6.47;2.22;;;14.60;99.90;;;;;;5017697;27;89568;-32
2022/09/19 10:58:22;;;;;;;3.15;1.73;;;14.70;99.90;;;;;;5020031;27;88882;-32
2022/09/19 11:00:55;;;;;;;11.95;2.95;;;14.70;99.90;;;;;;5017683;28;90112;-33
2022/09/19 11:03:28;;;;;;;12.35;2.13;;;14.80;99.90;;;;;;5016898;27;89719;-33
2022/09/19 11:06:23;;;;;;;4.22;2.45;;;15.00;99.90;;;;;;5017002;28;91368;-31
2022/09/19 11:08:51;;;;;;;5.72;2.05;;;15.10;99.90;;;;;;5017294;27;88196;-32
2022/09/19 11:11:36;;;;;;;6.78;2.50;;;15.00;99.90;;;;;;5017491;27;90530;-33
2022/09/19 11:14:31;;;;;;;10.73;2.63;;;15.00;99.90;;;;;;5017574;28;89707;-33
2022/09/19 11:17:29;;;;;;;4.80;2.00;;;14.90;99.90;;;;;;5017343;27;89630;-32
2022/09/19 11:20:20;;;;;;;7.32;2.05;;;14.80;99.90;;;;;;5017225;27;88661;-31
2022/09/19 11:23:13;;;;;;;5.30;2.65;;;14.70;99.90;;;;;;4995741;28;90237;-30
2022/09/19 11:26:06;;;;;;;4.13;2.45;;;14.80;99.90;;;;;;5016467;28;91059;-32
2022/09/19 11:29:06;;;;;;;7.25;2.83;;;14.80;99.90;;;;;;5008287;27;89410;-31
2022/09/19 11:31:50;;;;;;;9.65;2.17;;;14.80;99.90;;;;;;5017675;27;89114;-35
2022/09/19 11:34:36;;;;;;;9.82;3.10;;;14.90;99.90;;;;;;5016387;27;90369;-31
2022/09/19 11:37:27;;;;;;;5.95;2.60;;;15.10;99.90;;;;;;5016590;27;89571;-32
2022/09/19 11:40:22;;;;;;;6.30;2.42;;;15.30;99.90;;;;;;4988752;28;89900;-32
2022/09/19 11:42:56;;;;;;;9.30;2.75;;;15.60;99.90;;;;;;5016527;27;87576;-32
2022/09/19 11:45:25;;;;;;;4.78;2.30;;;15.70;99.90;;;;;;5017644;27;90069;-30
2022/09/19 11:48:02;;;;;;;4.82;2.03;;;15.60;99.90;;;;;;5017145;27;89541;-31
2022/09/19 11:50:46;;;;;;;6.10;1.90;;;15.70;99.90;;;;;;5016241;27;88948;-33
2022/09/19 11:53:20;;;;;;;7.55;2.05;;;15.70;99.90;;;;;;5016896;28;89823;-35
2022/09/19 11:55:58;;;;;;;4.60;1.98;;;15.80;99.90;;;;;;5017074;27;91859;-34
2022/09/19 11:58:33;;;;;;;4.75;1.70;;;15.70;99.90;;;;;;5016034;27;89949;-32
2022/09/19 12:01:28;;;;;;;4.53;1.48;;;15.80;99.90;;;;;;5017465;28;90066;-31
2022/09/19 12:04:08;;;;;;;4.80;1.75;;;15.90;99.90;;;;;;4992658;28;88400;-30
2022/09/19 12:06:48;;;;;;;7.63;2.75;;;16.00;99.90;;;;;;5016970;28;90068;-34
2022/09/19 12:09:22;;;;;;;9.82;1.88;;;16.00;99.90;;;;;;5016992;27;89349;-32
2022/09/19 12:11:55;;;;;;;7.15;2.25;;;16.00;99.90;;;;;;5016325;27;90433;-32
2022/09/19 12:14:28;;;;;;;11.82;3.05;;;16.10;99.90;;;;;;5017106;27;89027;-34
2022/09/19 12:17:16;;;;;;;8.27;2.15;;;16.20;99.90;;;;;;5017342;28;89476;-33
2022/09/19 12:19:49;;;;;;;5.50;3.17;;;16.30;99.90;;;;;;5016073;28;91195;-33
2022/09/19 12:22:23;;;;;;;6.80;2.35;;;16.40;99.90;;;;;;5015390;27;90459;-31
2022/09/19 12:24:59;;;;;;;14.65;2.70;;;16.40;99.90;;;;;;5006527;28;89548;-33
2022/09/19 12:27:41;;;;;;;5.65;1.58;;;16.50;99.90;;;;;;4996786;28;90251;-31
2022/09/19 12:30:11;;;;;;;8.02;2.47;;;16.60;99.90;;;;;;4996846;28;89786;-31
2022/09/19 12:32:46;;;;;;;12.60;2.85;;;16.70;99.90;;;;;;4996314;28;89650;-33
2022/09/19 12:35:25;;;;;;;8.73;3.50;;;16.60;99.90;;;;;;4995381;28;89261;-35
2022/09/19 12:38:11;;;;;;;8.27;2.33;;;16.60;99.90;;;;;;4996603;28;90294;-32
2022/09/19 12:40:53;;;;;;;5.05;2.53;;;16.50;99.90;;;;;;5008385;28;89911;-32
2022/09/19 12:43:32;;;;;;;8.38;2.72;;;16.40;99.90;;;;;;5035715;22;90226;-30
2022/09/19 12:46:09;;;;;;;9.00;2.38;;;16.30;99.90;;;;;;5016052;28;89688;-31
2022/09/19 12:49:03;;;;;;;9.95;2.80;;;16.10;99.90;;;;;;5016031;27;89993;-33
2022/09/19 12:51:49;;;;;;;23.33;3.15;;;16.10;99.90;;;;;;5017855;27;89640;-34
2022/09/19 12:54:25;;;;;;;9.75;2.53;;;16.00;99.90;;;;;;5007171;27;89589;-32
2022/09/19 12:57:05;;;;;;;9.02;2.13;;;15.90;99.90;;;;;;5019388;27;88515;-33
2022/09/19 12:59:33;;;;;;;8.27;2.63;;;15.80;99.90;;;;;;5018788;27;90762;-30
2022/09/19 13:02:27;;;;;;;6.82;2.25;;;15.60;99.90;;;;;;5019122;28;90285;-32
2022/09/19 13:05:16;;;;;;;12.52;2.28;;;15.60;99.90;;;;;;5019586;27;89834;-35
2022/09/19 13:07:54;;;;;;;6.10;2.03;;;15.60;99.90;;;;;;5020241;27;90037;-30
2022/09/19 13:11:10;;;;;;;10.63;2.63;;;15.60;99.90;;;;;;5017634;28;90378;-31
2022/09/19 13:13:52;;;;;;;6.78;2.17;;;15.60;99.90;;;;;;4984990;27;89626;-31
2022/09/19 13:16:23;;;;;;;8.68;2.72;;;15.50;99.90;;;;;;5019182;27;90572;-30
2022/09/19 13:24:40;;;;;;;18.08;2.92;;;15.70;99.90;;;;;;5018809;28;89065;-33
2022/09/19 13:27:06;;;;;;;4.93;2.50;;;15.90;99.90;;;;;;5019670;28;89534;-32
2022/09/19 13:29:32;;;;;;;8.55;2.20;;;16.00;99.90;;;;;;5019592;27;89147;-31